createdAt,value
2018-09-09T00:01:18.652Z,66.69
2018-09-09T00:03:47.327Z,66.77
2018-09-09T00:06:15.988Z,66.25
2018-09-09T00:08:44.644Z,66.50
2018-09-09T00:11:13.286Z,66.41
2018-09-09T00:13:41.943Z,66.57
2018-09-09T00:16:10.588Z,66.73
2018-09-09T00:18:39.243Z,66.93
2018-09-09T00:21:07.947Z,66.77
2018-09-09T00:23:36.633Z,66.90
2018-09-09T00:26:05.319Z,67.33
2018-09-09T00:28:33.933Z,66.93
2018-09-09T00:31:02.571Z,66.79
2018-09-09T00:33:31.291Z,66.86
2018-09-09T00:36:00.013Z,66.98
2018-09-09T00:38:28.684Z,66.86
2018-09-09T00:40:57.327Z,66.79
2018-09-09T00:43:26.025Z,66.54
2018-09-09T00:45:54.701Z,66.95
2018-09-09T00:48:23.353Z,66.73
2018-09-09T00:50:57.270Z,67.15
2018-09-09T00:53:31.153Z,67.27
2018-09-09T00:55:59.839Z,66.99
2018-09-09T00:58:28.475Z,67.37
2018-09-09T01:01:02.424Z,67.04
2018-09-09T01:03:31.196Z,67.57
2018-09-09T01:05:59.869Z,67.05
2018-09-09T01:08:28.528Z,67.33
2018-09-09T01:10:57.166Z,67.13
2018-09-09T01:13:25.772Z,66.99
2018-09-09T01:15:54.498Z,66.96
2018-09-09T01:18:23.155Z,66.52
2018-09-09T01:20:51.862Z,66.43
2018-09-09T01:23:20.625Z,66.99
2018-09-09T01:25:49.301Z,66.81
2018-09-09T01:28:17.934Z,66.81
2018-09-09T01:30:46.591Z,67.08
2018-09-09T01:33:15.224Z,67.03
2018-09-09T01:35:43.964Z,66.96
2018-09-09T01:38:12.608Z,67.05
2018-09-09T01:40:41.299Z,67.41
2018-09-09T01:43:09.955Z,67.25
2018-09-09T01:45:38.734Z,67.15
2018-09-09T01:48:07.414Z,67.25
2018-09-09T01:50:36.050Z,67.28
2018-09-09T01:53:04.822Z,67.35
2018-09-09T01:55:33.820Z,67.46
2018-09-09T01:58:02.482Z,67.52
2018-09-09T02:00:31.152Z,67.55
2018-09-09T02:02:59.795Z,67.63
2018-09-09T02:05:28.494Z,67.47
2018-09-09T02:07:57.161Z,67.96
2018-09-09T02:10:25.839Z,67.38
2018-09-09T02:12:54.459Z,67.82
2018-09-09T02:15:23.124Z,68.31
2018-09-09T02:17:51.787Z,67.89
2018-09-09T02:20:20.464Z,67.93
2018-09-09T02:22:49.131Z,68.18
2018-09-09T02:25:17.827Z,68.21
2018-09-09T02:27:46.424Z,68.70
2018-09-09T02:30:15.071Z,68.67
2018-09-09T02:32:43.706Z,69.01
2018-09-09T02:35:12.343Z,69.11
2018-09-09T02:37:41.039Z,69.19
2018-09-09T02:40:09.755Z,69.62
2018-09-09T02:42:38.443Z,69.76
2018-09-09T02:45:07.110Z,69.66
2018-09-09T02:47:35.811Z,69.87
2018-09-09T02:50:04.566Z,70.06
2018-09-09T02:52:33.798Z,69.96
2018-09-09T02:55:02.494Z,69.79
2018-09-09T02:57:31.126Z,70.13
2018-09-09T02:59:59.748Z,70.13
2018-09-09T03:02:28.421Z,70.13
2018-09-09T03:04:57.059Z,70.26
2018-09-09T03:07:25.691Z,70.27
2018-09-09T03:09:54.316Z,70.44
2018-09-09T03:12:22.938Z,70.55
2018-09-09T03:14:51.608Z,70.78
2018-09-09T03:17:20.239Z,71.37
2018-09-09T03:19:48.880Z,71.55
2018-09-09T03:22:17.524Z,71.89
2018-09-09T03:24:46.187Z,72.00
2018-09-09T03:27:14.856Z,72.07
2018-09-09T03:29:43.567Z,72.54
2018-09-09T03:32:12.202Z,72.62
2018-09-09T03:34:40.876Z,72.28
2018-09-09T03:37:09.520Z,72.82
2018-09-09T03:39:38.269Z,72.43
2018-09-09T03:42:07.284Z,72.33
2018-09-09T03:44:35.911Z,72.04
2018-09-09T03:47:04.603Z,72.27
2018-09-09T03:49:33.217Z,72.09
2018-09-09T03:52:01.894Z,72.15
2018-09-09T03:54:30.535Z,72.41
2018-09-09T03:56:59.198Z,73.02
2018-09-09T03:59:27.943Z,72.49
2018-09-09T04:01:56.546Z,72.71
2018-09-09T04:04:25.228Z,72.04
2018-09-09T04:06:53.907Z,72.49
2018-09-09T04:09:22.592Z,72.02
2018-09-09T04:11:51.246Z,71.99
2018-09-09T04:14:19.859Z,72.52
2018-09-09T04:16:48.498Z,72.24
2018-09-09T04:19:17.230Z,72.44
2018-09-09T04:21:50.059Z,72.30
2018-09-09T04:24:19.059Z,72.37
2018-09-09T04:26:47.848Z,72.86
2018-09-09T04:29:16.573Z,72.67
2018-09-09T04:31:45.428Z,73.10
2018-09-09T04:34:14.336Z,72.76
2018-09-09T04:36:43.635Z,72.86
2018-09-09T04:39:14.498Z,72.60
2018-09-09T04:41:43.199Z,72.24
2018-09-09T04:44:13.284Z,73.28
2018-09-09T04:46:41.985Z,72.12
2018-09-09T04:49:10.976Z,73.11
2018-09-09T04:51:39.888Z,73.10
2018-09-09T04:54:08.566Z,72.67
2018-09-09T04:56:37.190Z,72.67
2018-09-09T04:59:06.186Z,72.13
2018-09-09T05:01:38.280Z,72.88
2018-09-09T05:04:06.926Z,72.43
2018-09-09T05:06:36.512Z,72.43
2018-09-09T05:09:06.453Z,72.59
2018-09-09T05:11:35.279Z,72.65
2018-09-09T05:14:04.031Z,72.53
2018-09-09T05:16:32.772Z,72.37
2018-09-09T05:19:01.480Z,72.67
2018-09-09T05:21:30.223Z,72.76
2018-09-09T05:23:58.854Z,72.65
2018-09-09T05:26:27.504Z,72.45
2018-09-09T05:28:56.139Z,72.57
2018-09-09T05:31:24.776Z,72.28
2018-09-09T05:33:53.466Z,71.43
2018-09-09T05:36:22.125Z,71.58
2018-09-09T05:38:50.809Z,71.47
2018-09-09T05:41:19.468Z,71.33
2018-09-09T05:43:48.099Z,70.87
2018-09-09T05:46:16.762Z,71.58
2018-09-09T05:48:45.447Z,71.12
2018-09-09T05:51:14.192Z,71.01
2018-09-09T05:53:42.937Z,70.77
2018-09-09T05:56:11.571Z,70.14
2018-09-09T05:58:40.246Z,70.17
2018-09-09T06:01:08.940Z,70.16
2018-09-09T06:04:16.560Z,70.58
2018-09-09T06:06:45.180Z,70.75
2018-09-09T06:09:13.890Z,70.88
2018-09-09T06:11:42.559Z,70.70
2018-09-09T06:14:11.200Z,70.15
2018-09-09T06:16:39.881Z,70.29
2018-09-09T06:19:08.521Z,70.51
2018-09-09T06:21:37.220Z,69.71
2018-09-09T06:24:06.065Z,69.35
2018-09-09T06:26:34.694Z,69.29
2018-09-09T06:29:03.341Z,68.91
2018-09-09T06:31:32.014Z,69.25
2018-09-09T06:34:00.735Z,69.16
2018-09-09T06:36:29.387Z,68.87
2018-09-09T06:38:58.622Z,68.73
2018-09-09T06:41:27.242Z,68.59
2018-09-09T06:43:55.922Z,68.08
2018-09-09T06:46:24.655Z,68.13
2018-09-09T06:48:53.301Z,68.25
2018-09-09T06:51:22.096Z,67.80
2018-09-09T06:53:50.798Z,67.41
2018-09-09T06:56:19.471Z,67.18
2018-09-09T06:58:48.211Z,66.97
2018-09-09T07:01:16.942Z,67.22
2018-09-09T07:03:45.543Z,66.88
2018-09-09T07:06:14.192Z,67.30
2018-09-09T07:08:42.916Z,66.95
2018-09-09T07:11:11.758Z,66.93
2018-09-09T07:13:40.373Z,66.87
2018-09-09T07:16:09.006Z,66.76
2018-09-09T07:18:37.679Z,65.62
2018-09-09T07:21:06.384Z,64.84
2018-09-09T07:23:35.075Z,65.12
2018-09-09T07:26:03.807Z,64.81
2018-09-09T07:28:32.441Z,64.43
2018-09-09T07:31:01.173Z,64.49
2018-09-09T07:33:29.823Z,64.41
2018-09-09T07:35:58.507Z,64.56
2018-09-09T07:38:27.132Z,63.51
2018-09-09T07:40:55.786Z,63.13
2018-09-09T07:43:24.515Z,63.50
2018-09-09T07:45:53.164Z,62.97
2018-09-09T07:48:21.831Z,61.57
2018-09-09T07:50:50.553Z,61.80
2018-09-09T07:53:19.255Z,60.87
2018-09-09T07:55:47.939Z,60.79
2018-09-09T07:58:16.635Z,60.21
2018-09-09T08:00:45.350Z,60.41
2018-09-09T08:03:14.107Z,61.19
2018-09-09T08:05:42.843Z,59.79
2018-09-09T08:08:11.572Z,60.10
2018-09-09T08:10:40.256Z,58.47
2018-09-09T08:13:08.946Z,58.83
2018-09-09T08:15:37.575Z,57.67
2018-09-09T08:18:06.305Z,57.46
2018-09-09T08:20:34.934Z,57.15
2018-09-09T08:23:03.674Z,57.55
2018-09-09T08:25:32.331Z,53.80
2018-09-09T08:28:01.018Z,55.94
2018-09-09T08:30:29.692Z,56.43
2018-09-09T08:32:58.355Z,56.08
2018-09-09T08:35:27.042Z,56.70
2018-09-09T08:37:55.808Z,56.37
2018-09-09T08:40:24.447Z,55.48
2018-09-09T08:42:53.102Z,53.81
2018-09-09T08:45:21.799Z,55.53
2018-09-09T08:50:18.029Z,52.92
2018-09-09T08:52:46.746Z,53.62
2018-09-09T08:55:15.378Z,53.55
2018-09-09T08:57:44.098Z,53.64
2018-09-09T09:00:12.781Z,51.46
2018-09-09T09:02:41.457Z,52.90
2018-09-09T09:05:10.171Z,51.45
2018-09-09T09:07:38.884Z,50.83
2018-09-09T09:10:07.694Z,50.89
2018-09-09T09:12:36.344Z,51.65
2018-09-09T09:15:04.988Z,49.71
2018-09-09T09:17:33.615Z,48.06
2018-09-09T09:20:02.373Z,47.55
2018-09-09T09:22:31.055Z,47.63
2018-09-09T09:24:59.736Z,47.97
2018-09-09T09:27:28.392Z,47.80
2018-09-09T09:29:57.590Z,47.77
2018-09-09T09:32:26.663Z,47.06
2018-09-09T09:34:56.070Z,47.05
2018-09-09T09:37:26.419Z,46.76
2018-09-09T09:39:55.927Z,47.94
2018-09-09T09:42:25.219Z,48.71
2018-09-09T09:44:53.981Z,48.40
2018-09-09T09:47:22.639Z,47.60
2018-09-09T09:49:51.269Z,47.49
2018-09-09T09:52:19.914Z,47.74
2018-09-09T09:54:48.548Z,46.80
2018-09-09T09:57:17.170Z,46.23
2018-09-09T09:59:45.865Z,46.52
2018-09-09T10:02:14.538Z,47.64
2018-09-09T10:04:43.217Z,46.42
2018-09-09T10:07:11.891Z,47.19
2018-09-09T10:09:40.533Z,46.46
2018-09-09T10:12:09.255Z,46.44
2018-09-09T10:14:37.996Z,46.38
2018-09-09T10:17:06.691Z,44.47
2018-09-09T10:19:35.305Z,43.13
2018-09-09T10:22:03.981Z,43.45
2018-09-09T10:24:32.646Z,44.48
2018-09-09T10:27:01.363Z,43.99
2018-09-09T10:29:30.003Z,42.71
2018-09-09T10:31:58.642Z,43.22
2018-09-09T10:34:27.316Z,44.34
2018-09-09T10:36:56.107Z,44.89
2018-09-09T10:39:24.760Z,43.32
2018-09-09T10:41:53.384Z,41.81
2018-09-09T10:44:22.081Z,40.80
2018-09-09T10:46:50.875Z,43.19
2018-09-09T10:49:19.467Z,42.01
2018-09-09T10:51:48.157Z,42.93
2018-09-09T10:54:16.844Z,41.84
2018-09-09T10:56:45.471Z,41.99
2018-09-09T10:59:14.113Z,42.38
2018-09-09T11:01:42.766Z,42.74
2018-09-09T11:04:11.403Z,41.48
2018-09-09T11:06:40.181Z,40.01
2018-09-09T11:09:09.933Z,40.97
2018-09-09T11:11:38.748Z,41.88
2018-09-09T11:14:07.427Z,43.57
2018-09-09T11:16:36.085Z,44.14
2018-09-09T11:19:04.826Z,44.01
2018-09-09T11:21:33.483Z,44.81
2018-09-09T11:24:02.179Z,47.80
2018-09-09T11:26:30.888Z,50.05
2018-09-09T11:28:59.554Z,49.49
2018-09-09T11:31:28.229Z,55.85
2018-09-09T11:33:56.905Z,56.78
2018-09-09T11:36:25.597Z,63.12
2018-09-09T11:38:54.296Z,67.62
2018-09-09T11:41:23.020Z,68.91
2018-09-09T11:43:51.703Z,65.71
2018-09-09T11:46:20.650Z,61.18
2018-09-09T11:48:49.356Z,66.20
2018-09-09T11:51:18.028Z,64.38
2018-09-09T11:53:46.719Z,68.28
2018-09-09T11:56:15.460Z,69.30
2018-09-09T11:58:44.208Z,71.58
2018-09-09T12:01:12.921Z,70.29
2018-09-09T12:03:41.589Z,68.52
2018-09-09T12:06:10.246Z,70.91
2018-09-09T12:08:38.878Z,72.25
2018-09-09T12:11:07.577Z,70.97
2018-09-09T12:13:36.281Z,67.72
2018-09-09T12:16:05.123Z,76.48
2018-09-09T12:18:33.789Z,70.51
2018-09-09T12:21:02.551Z,66.46
2018-09-09T12:23:31.356Z,75.58
2018-09-09T12:26:00.029Z,75.86
2018-09-09T12:28:28.713Z,74.38
2018-09-09T12:30:57.366Z,71.14
2018-09-09T12:33:25.989Z,69.84
2018-09-09T12:35:54.669Z,68.78
2018-09-09T12:38:23.327Z,64.57
2018-09-09T12:40:51.960Z,65.92
2018-09-09T12:43:25.775Z,66.12
2018-09-09T12:45:59.594Z,67.82
2018-09-09T12:48:33.502Z,68.05
2018-09-09T12:51:02.164Z,71.28
2018-09-09T12:53:30.798Z,74.65
2018-09-09T12:55:59.463Z,69.94
2018-09-09T12:58:28.143Z,70.48
2018-09-09T13:00:56.802Z,72.48
2018-09-09T13:03:25.460Z,74.08
2018-09-09T13:05:54.096Z,75.08
2018-09-09T13:08:22.733Z,75.34
2018-09-09T13:10:51.436Z,74.90
2018-09-09T13:13:20.818Z,74.95
2018-09-09T13:15:50.025Z,77.10
2018-09-09T13:18:18.736Z,76.07
2018-09-09T13:20:47.384Z,67.80
2018-09-09T13:23:16.021Z,63.60
2018-09-09T13:25:44.679Z,62.22
2018-09-09T13:28:13.394Z,59.83
2018-09-09T13:30:42.069Z,60.89
2018-09-09T13:33:10.735Z,63.31
2018-09-09T13:35:39.369Z,61.97
2018-09-09T13:38:08.078Z,58.55
2018-09-09T13:40:36.795Z,60.63
2018-09-09T13:43:05.615Z,64.13
2018-09-09T13:45:34.286Z,64.03
2018-09-09T13:48:03.144Z,61.89
2018-09-09T13:50:31.810Z,63.33
2018-09-09T13:53:00.464Z,62.16
2018-09-09T13:55:29.154Z,62.27
2018-09-09T13:57:57.795Z,59.48
2018-09-09T14:00:26.470Z,60.68
2018-09-09T14:02:55.149Z,60.47
2018-09-09T14:05:23.859Z,59.96
2018-09-09T14:07:52.538Z,59.41
2018-09-09T14:10:21.222Z,58.48
2018-09-09T14:12:49.887Z,56.78
2018-09-09T14:15:18.625Z,54.37
2018-09-09T14:17:47.290Z,51.81
2018-09-09T14:20:16.000Z,52.83
2018-09-09T14:22:44.709Z,49.90
2018-09-09T14:25:13.302Z,50.85
2018-09-09T14:27:42.042Z,49.22
2018-09-09T14:31:40.087Z,50.45
2018-09-09T14:34:08.906Z,47.99
2018-09-09T14:36:37.564Z,50.32
2018-09-09T14:39:08.327Z,48.76
2018-09-09T14:41:37.047Z,49.36
2018-09-09T14:44:06.044Z,46.76
2018-09-09T14:46:34.822Z,44.28
2018-09-09T14:49:03.514Z,40.12
2018-09-09T14:51:32.241Z,41.64
2018-09-09T14:54:01.001Z,43.14
2018-09-09T14:56:29.760Z,43.57
2018-09-09T14:58:58.925Z,43.31
2018-09-09T15:01:27.692Z,44.40
2018-09-09T15:03:56.402Z,45.45
2018-09-09T15:06:25.186Z,45.37
2018-09-09T15:08:54.080Z,43.04
2018-09-09T15:11:22.814Z,43.36
2018-09-09T15:13:51.583Z,44.92
2018-09-09T15:16:20.234Z,44.85
2018-09-09T15:18:48.946Z,43.79
2018-09-09T15:21:17.702Z,42.94
2018-09-09T15:23:46.376Z,43.88
2018-09-09T15:26:15.130Z,42.92
2018-09-09T15:28:43.858Z,41.83
2018-09-09T15:31:12.535Z,42.55
2018-09-09T15:33:41.258Z,43.03
2018-09-09T15:36:10.550Z,43.97
2018-09-09T15:38:39.443Z,43.21
2018-09-09T15:41:08.213Z,43.14
2018-09-09T15:43:37.072Z,41.11
2018-09-09T15:46:06.431Z,41.38
2018-09-09T15:48:35.184Z,41.47
2018-09-09T15:51:04.118Z,41.41
2018-09-09T15:53:32.849Z,40.52
2018-09-09T15:56:01.589Z,40.75
2018-09-09T15:58:30.302Z,41.83
2018-09-09T16:00:59.088Z,42.04
2018-09-09T16:03:27.941Z,42.15
2018-09-09T16:05:57.300Z,42.33
2018-09-09T16:08:26.086Z,43.55
2018-09-09T16:10:54.855Z,43.36
2018-09-09T16:13:23.667Z,43.25
2018-09-09T16:15:52.397Z,43.86
2018-09-09T16:18:21.157Z,45.18
2018-09-09T16:20:49.888Z,44.70
2018-09-09T16:23:18.753Z,45.72
2018-09-09T16:25:47.617Z,45.76
2018-09-09T16:28:16.341Z,46.12
2018-09-09T16:30:45.725Z,46.86
2018-09-09T16:33:14.398Z,46.33
2018-09-09T16:35:43.187Z,45.63
2018-09-09T16:38:11.898Z,46.72
2018-09-09T16:40:40.721Z,47.41
2018-09-09T16:43:11.064Z,46.56
2018-09-09T16:45:40.548Z,46.65
2018-09-09T16:48:09.288Z,47.63
2018-09-09T16:50:38.099Z,47.53
2018-09-09T16:53:07.022Z,47.66
2018-09-09T16:57:23.623Z,47.58
2018-09-09T16:59:52.320Z,48.07
2018-09-09T17:02:21.098Z,48.09
2018-09-09T17:04:49.851Z,48.50
2018-09-09T17:07:18.572Z,48.37
2018-09-09T17:09:47.754Z,48.68
2018-09-09T17:12:16.772Z,48.90
2018-09-09T17:14:45.570Z,48.39
2018-09-09T17:17:14.314Z,48.49
2018-09-09T17:19:42.993Z,48.45
2018-09-09T17:22:11.715Z,48.30
2018-09-09T17:24:40.489Z,48.17
2018-09-09T17:27:09.300Z,48.46
2018-09-09T17:29:38.056Z,48.60
2018-09-09T17:32:06.771Z,48.46
2018-09-09T17:34:35.475Z,48.70
2018-09-09T17:37:04.546Z,48.41
2018-09-09T17:39:33.262Z,48.72
2018-09-09T17:42:01.916Z,48.88
2018-09-09T17:44:30.788Z,48.68
2018-09-09T17:46:59.631Z,48.83
2018-09-09T17:49:28.334Z,49.04
2018-09-09T17:51:57.132Z,49.09
2018-09-09T17:54:25.809Z,49.42
2018-09-09T17:56:54.607Z,49.42
2018-09-09T17:59:23.445Z,49.74
2018-09-09T18:01:52.239Z,49.22
2018-09-09T18:04:21.074Z,49.55
2018-09-09T18:06:49.782Z,49.36
2018-09-09T18:09:18.552Z,49.28
2018-09-09T18:11:47.387Z,48.89
2018-09-09T18:14:16.000Z,48.79
2018-09-09T18:16:44.702Z,49.00
2018-09-09T18:19:13.581Z,48.95
2018-09-09T18:21:42.305Z,48.91
2018-09-09T18:24:11.122Z,48.57
2018-09-09T18:26:39.824Z,48.46
2018-09-09T18:29:08.525Z,49.28
2018-09-09T18:31:37.231Z,49.06
2018-09-09T18:34:05.912Z,48.90
2018-09-09T18:36:34.640Z,49.43
2018-09-09T18:39:03.628Z,49.54
2018-09-09T18:41:32.311Z,49.94
2018-09-09T18:44:01.255Z,49.47
2018-09-09T18:46:30.097Z,49.81
2018-09-09T18:48:58.961Z,50.13
2018-09-09T18:51:27.775Z,50.48
2018-09-09T18:53:56.600Z,50.62
2018-09-09T18:56:25.357Z,50.81
2018-09-09T18:58:54.260Z,50.94
2018-09-09T19:01:23.016Z,51.26
2018-09-09T19:03:51.770Z,51.27
2018-09-09T19:06:20.642Z,51.41
2018-09-09T19:08:49.267Z,51.50
2018-09-09T19:11:17.946Z,51.87
2018-09-09T19:13:46.678Z,51.80
2018-09-09T19:16:15.417Z,52.48
2018-09-09T19:18:44.159Z,52.26
2018-09-09T19:21:12.934Z,52.30
2018-09-09T19:23:41.683Z,52.08
2018-09-09T19:26:10.369Z,52.42
2018-09-09T19:28:40.570Z,52.17
2018-09-09T19:31:09.294Z,52.09
2018-09-09T19:33:38.049Z,52.64
2018-09-09T19:36:06.872Z,52.89
2018-09-09T19:38:35.660Z,52.73
2018-09-09T19:41:04.351Z,53.03
2018-09-09T19:43:33.345Z,53.30
2018-09-09T19:46:02.066Z,52.67
2018-09-09T19:48:30.727Z,53.11
2018-09-09T19:50:59.445Z,53.38
2018-09-09T19:53:28.140Z,52.77
2018-09-09T19:55:56.853Z,53.03
2018-09-09T19:58:25.807Z,52.89
2018-09-09T20:00:54.492Z,53.99
2018-09-09T20:03:23.276Z,53.79
2018-09-09T20:05:51.981Z,53.76
2018-09-09T20:08:20.630Z,53.75
2018-09-09T20:10:49.371Z,53.48
2018-09-09T20:13:18.071Z,53.33
2018-09-09T20:15:46.926Z,53.20
2018-09-09T20:18:15.535Z,52.83
2018-09-09T20:20:44.243Z,53.13
2018-09-09T20:23:13.291Z,53.22
2018-09-09T20:25:41.943Z,53.10
2018-09-09T20:28:10.615Z,53.46
2018-09-09T20:30:39.379Z,53.44
2018-09-09T20:33:08.049Z,53.35
2018-09-09T20:35:36.717Z,52.94
2018-09-09T20:38:05.507Z,53.42
2018-09-09T20:40:34.173Z,53.47
2018-09-09T20:43:02.858Z,53.75
2018-09-09T20:45:31.627Z,53.54
2018-09-09T20:48:00.563Z,53.39
2018-09-09T20:50:29.326Z,53.44
2018-09-09T20:52:58.173Z,53.45
2018-09-09T20:55:26.810Z,53.48
2018-09-09T20:57:55.500Z,53.44
2018-09-09T21:00:24.303Z,53.20
2018-09-09T21:02:53.660Z,53.11
2018-09-09T21:05:22.518Z,53.47
2018-09-09T21:07:51.318Z,53.55
2018-09-09T21:10:19.997Z,53.35
2018-09-09T21:12:48.671Z,53.41
2018-09-09T21:15:17.519Z,53.75
2018-09-09T21:17:46.334Z,53.91
2018-09-09T21:20:15.139Z,53.53
2018-09-09T21:22:43.976Z,53.95
2018-09-09T21:25:12.783Z,53.64
2018-09-09T21:27:41.667Z,53.94
2018-09-09T21:30:10.499Z,53.74
2018-09-09T21:32:39.235Z,53.77
2018-09-09T21:35:08.018Z,53.73
2018-09-09T21:37:36.709Z,54.31
2018-09-09T21:40:05.455Z,54.10
2018-09-09T21:42:34.214Z,54.11
2018-09-09T21:45:02.882Z,54.29
2018-09-09T21:47:31.681Z,54.35
2018-09-09T21:50:00.467Z,54.39
2018-09-09T21:52:29.184Z,54.41
2018-09-09T21:54:57.947Z,54.18
2018-09-09T21:57:26.724Z,54.24
2018-09-09T21:59:55.441Z,54.30
2018-09-09T22:02:24.114Z,54.82
2018-09-09T22:04:52.942Z,54.56
2018-09-09T22:07:21.771Z,54.69
2018-09-09T22:09:50.575Z,54.96
2018-09-09T22:12:19.448Z,54.93
2018-09-09T22:14:48.202Z,55.25
2018-09-09T22:17:16.875Z,55.31
2018-09-09T22:19:45.659Z,54.98
2018-09-09T22:22:14.351Z,55.42
2018-09-09T22:24:43.081Z,55.72
2018-09-09T22:27:12.442Z,55.94
2018-09-09T22:29:41.130Z,55.72
2018-09-09T22:32:09.816Z,56.22
2018-09-09T22:34:38.493Z,56.53
2018-09-09T22:37:07.138Z,56.66
2018-09-09T22:39:35.794Z,56.72
2018-09-09T22:42:04.508Z,56.94
2018-09-09T22:44:33.263Z,56.94
2018-09-09T22:47:01.911Z,57.06
2018-09-09T22:49:30.587Z,57.13
2018-09-09T22:51:59.292Z,57.13
2018-09-09T22:54:28.015Z,57.48
2018-09-09T22:56:56.656Z,56.93
2018-09-09T22:59:25.375Z,56.96
2018-09-09T23:01:54.148Z,57.18
2018-09-09T23:04:22.778Z,56.98
2018-09-09T23:06:51.820Z,57.22
2018-09-09T23:09:20.502Z,57.14
2018-09-09T23:11:49.807Z,57.77
2018-09-09T23:14:18.521Z,57.46
2018-09-09T23:16:47.255Z,57.84
2018-09-09T23:19:15.904Z,58.01
2018-09-09T23:21:44.557Z,57.59
2018-09-09T23:24:13.182Z,57.49
2018-09-09T23:26:41.855Z,57.49
2018-09-09T23:29:10.510Z,57.59
2018-09-09T23:34:38.438Z,58.14
2018-09-09T23:37:07.159Z,57.93
2018-09-09T23:39:35.810Z,58.07
2018-09-09T23:42:04.562Z,57.56
2018-09-09T23:44:33.229Z,58.31
2018-09-09T23:47:01.907Z,58.13
2018-09-09T23:49:30.590Z,58.05
2018-09-09T23:51:59.255Z,58.40
2018-09-09T23:54:27.968Z,59.01
2018-09-09T23:56:56.740Z,58.37
2018-09-09T23:59:25.415Z,58.72
